sensor_id;sensor_type;location;lat;lon;timestamp;P1;durP1;ratioP1;P2;durP2;ratioP2
49834;SDS011;35729;52.090;13.162;2024-01-15T00:00:22;28.75;;;18.08;;
49834;SDS011;35729;52.090;13.162;2024-01-15T00:02:50;26.42;;;16.92;;
49834;SDS011;35729;52.090;13.162;2024-01-15T00:05:21;26.98;;;16.05;;
49834;SDS011;35729;52.090;13.162;2024-01-15T00:07:49;33.03;;;17.67;;
49834;SDS011;35729;52.090;13.162;2024-01-15T00:10:18;28.08;;;16.42;;
49834;SDS011;35729;52.090;13.162;2024-01-15T00:12:46;29.48;;;17.13;;
49834;SDS011;35729;52.090;13.162;2024-01-15T00:15:15;29.13;;;18.40;;
49834;SDS011;35729;52.090;13.162;2024-01-15T00:17:43;28.05;;;16.92;;
49834;SDS011;35729;52.090;13.162;2024-01-15T00:20:12;27.77;;;16.80;;
49834;SDS011;35729;52.090;13.162;2024-01-15T00:22:43;27.17;;;17.13;;
49834;SDS011;35729;52.090;13.162;2024-01-15T00:25:11;27.38;;;16.67;;
49834;SDS011;35729;52.090;13.162;2024-01-15T00:27:40;25.95;;;16.00;;
49834;SDS011;35729;52.090;13.162;2024-01-15T00:30:08;25.98;;;17.45;;
49834;SDS011;35729;52.090;13.162;2024-01-15T00:32:38;25.80;;;16.42;;
49834;SDS011;35729;52.090;13.162;2024-01-15T00:35:06;26.75;;;16.10;;
49834;SDS011;35729;52.090;13.162;2024-01-15T00:37:35;26.88;;;16.10;;
49834;SDS011;35729;52.090;13.162;2024-01-15T00:40:07;27.48;;;16.88;;
49834;SDS011;35729;52.090;13.162;2024-01-15T00:42:37;28.92;;;18.13;;
49834;SDS011;35729;52.090;13.162;2024-01-15T00:45:05;28.20;;;16.85;;
49834;SDS011;35729;52.090;13.162;2024-01-15T00:47:34;26.88;;;16.35;;
49834;SDS011;35729;52.090;13.162;2024-01-15T00:50:03;30.20;;;18.13;;
49834;SDS011;35729;52.090;13.162;2024-01-15T00:52:31;26.38;;;16.90;;
49834;SDS011;35729;52.090;13.162;2024-01-15T00:55:00;28.30;;;17.17;;
49834;SDS011;35729;52.090;13.162;2024-01-15T00:57:31;23.58;;;14.98;;
49834;SDS011;35729;52.090;13.162;2024-01-15T00:59:59;27.02;;;17.00;;
49834;SDS011;35729;52.090;13.162;2024-01-15T01:02:28;26.25;;;16.08;;
49834;SDS011;35729;52.090;13.162;2024-01-15T01:04:56;25.50;;;15.05;;
49834;SDS011;35729;52.090;13.162;2024-01-15T01:07:25;22.02;;;13.80;;
49834;SDS011;35729;52.090;13.162;2024-01-15T01:09:53;22.25;;;15.40;;
49834;SDS011;35729;52.090;13.162;2024-01-15T01:12:21;20.83;;;13.80;;
49834;SDS011;35729;52.090;13.162;2024-01-15T01:14:53;21.90;;;13.50;;
49834;SDS011;35729;52.090;13.162;2024-01-15T01:17:21;20.88;;;13.30;;
49834;SDS011;35729;52.090;13.162;2024-01-15T01:19:49;22.35;;;13.75;;
49834;SDS011;35729;52.090;13.162;2024-01-15T01:22:18;23.23;;;14.30;;
49834;SDS011;35729;52.090;13.162;2024-01-15T01:24:46;20.90;;;13.32;;
49834;SDS011;35729;52.090;13.162;2024-01-15T01:27:15;22.90;;;14.73;;
49834;SDS011;35729;52.090;13.162;2024-01-15T01:29:43;22.38;;;14.52;;
49834;SDS011;35729;52.090;13.162;2024-01-15T01:32:14;23.30;;;14.73;;
49834;SDS011;35729;52.090;13.162;2024-01-15T01:34:43;20.00;;;13.23;;
49834;SDS011;35729;52.090;13.162;2024-01-15T01:37:11;17.15;;;12.70;;
49834;SDS011;35729;52.090;13.162;2024-01-15T01:39:40;18.42;;;12.30;;
49834;SDS011;35729;52.090;13.162;2024-01-15T01:42:09;18.63;;;13.57;;
49834;SDS011;35729;52.090;13.162;2024-01-15T01:44:38;18.45;;;12.30;;
49834;SDS011;35729;52.090;13.162;2024-01-15T01:47:07;21.10;;;13.25;;
49834;SDS011;35729;52.090;13.162;2024-01-15T01:49:39;24.92;;;15.27;;
49834;SDS011;35729;52.090;13.162;2024-01-15T01:52:08;22.60;;;14.48;;
49834;SDS011;35729;52.090;13.162;2024-01-15T01:54:38;22.00;;;15.50;;
49834;SDS011;35729;52.090;13.162;2024-01-15T01:57:08;25.17;;;15.73;;
49834;SDS011;35729;52.090;13.162;2024-01-15T01:59:38;22.88;;;15.40;;
49834;SDS011;35729;52.090;13.162;2024-01-15T02:02:06;28.80;;;16.45;;
49834;SDS011;35729;52.090;13.162;2024-01-15T02:04:35;25.45;;;16.95;;
49834;SDS011;35729;52.090;13.162;2024-01-15T02:07:07;28.25;;;17.13;;
49834;SDS011;35729;52.090;13.162;2024-01-15T02:09:35;26.77;;;16.27;;
49834;SDS011;35729;52.090;13.162;2024-01-15T02:12:04;25.83;;;14.75;;
49834;SDS011;35729;52.090;13.162;2024-01-15T02:14:33;24.48;;;15.18;;
49834;SDS011;35729;52.090;13.162;2024-01-15T02:17:01;23.50;;;14.68;;
49834;SDS011;35729;52.090;13.162;2024-01-15T02:19:30;23.95;;;14.25;;
49834;SDS011;35729;52.090;13.162;2024-01-15T02:21:58;24.45;;;14.68;;
49834;SDS011;35729;52.090;13.162;2024-01-15T02:24:29;23.70;;;14.80;;
49834;SDS011;35729;52.090;13.162;2024-01-15T02:26:58;21.45;;;13.57;;
49834;SDS011;35729;52.090;13.162;2024-01-15T02:29:34;23.73;;;13.88;;
49834;SDS011;35729;52.090;13.162;2024-01-15T02:32:04;23.42;;;14.25;;
49834;SDS011;35729;52.090;13.162;2024-01-15T02:34:32;20.70;;;12.40;;
49834;SDS011;35729;52.090;13.162;2024-01-15T02:37:01;19.30;;;12.88;;
49834;SDS011;35729;52.090;13.162;2024-01-15T02:39:32;23.38;;;13.68;;
49834;SDS011;35729;52.090;13.162;2024-01-15T02:42:00;22.70;;;13.57;;
49834;SDS011;35729;52.090;13.162;2024-01-15T02:44:29;23.23;;;13.15;;
49834;SDS011;35729;52.090;13.162;2024-01-15T02:46:57;22.08;;;12.60;;
49834;SDS011;35729;52.090;13.162;2024-01-15T02:49:26;24.65;;;12.88;;
49834;SDS011;35729;52.090;13.162;2024-01-15T02:51:54;25.75;;;14.27;;
49834;SDS011;35729;52.090;13.162;2024-01-15T02:54:22;21.95;;;13.13;;
49834;SDS011;35729;52.090;13.162;2024-01-15T02:56:53;23.52;;;13.35;;
49834;SDS011;35729;52.090;13.162;2024-01-15T02:59:22;21.75;;;12.65;;
49834;SDS011;35729;52.090;13.162;2024-01-15T03:01:50;21.38;;;12.65;;
49834;SDS011;35729;52.090;13.162;2024-01-15T03:04:19;21.73;;;12.80;;
49834;SDS011;35729;52.090;13.162;2024-01-15T03:06:47;20.02;;;11.60;;
49834;SDS011;35729;52.090;13.162;2024-01-15T03:09:15;18.20;;;10.93;;
49834;SDS011;35729;52.090;13.162;2024-01-15T03:11:44;19.20;;;11.55;;
49834;SDS011;35729;52.090;13.162;2024-01-15T03:14:16;19.77;;;10.80;;
49834;SDS011;35729;52.090;13.162;2024-01-15T03:16:45;18.98;;;10.32;;
49834;SDS011;35729;52.090;13.162;2024-01-15T03:19:13;19.67;;;11.48;;
49834;SDS011;35729;52.090;13.162;2024-01-15T03:21:42;16.95;;;10.95;;
49834;SDS011;35729;52.090;13.162;2024-01-15T03:24:10;15.88;;;9.77;;
49834;SDS011;35729;52.090;13.162;2024-01-15T03:26:39;20.05;;;11.23;;
49834;SDS011;35729;52.090;13.162;2024-01-15T03:29:07;15.73;;;10.18;;
49834;SDS011;35729;52.090;13.162;2024-01-15T03:31:38;18.80;;;10.90;;
49834;SDS011;35729;52.090;13.162;2024-01-15T03:34:07;13.90;;;9.82;;
49834;SDS011;35729;52.090;13.162;2024-01-15T03:36:35;20.23;;;10.90;;
49834;SDS011;35729;52.090;13.162;2024-01-15T03:39:04;18.58;;;10.32;;
49834;SDS011;35729;52.090;13.162;2024-01-15T03:41:32;13.40;;;8.75;;
49834;SDS011;35729;52.090;13.162;2024-01-15T03:44:01;16.42;;;8.60;;
49834;SDS011;35729;52.090;13.162;2024-01-15T03:46:29;13.38;;;8.95;;
49834;SDS011;35729;52.090;13.162;2024-01-15T03:49:00;12.65;;;8.43;;
49834;SDS011;35729;52.090;13.162;2024-01-15T03:51:29;15.00;;;9.15;;
49834;SDS011;35729;52.090;13.162;2024-01-15T03:53:57;14.18;;;9.25;;
49834;SDS011;35729;52.090;13.162;2024-01-15T03:56:26;12.23;;;7.50;;
49834;SDS011;35729;52.090;13.162;2024-01-15T03:58:54;10.32;;;7.35;;
49834;SDS011;35729;52.090;13.162;2024-01-15T04:01:22;10.57;;;6.82;;
49834;SDS011;35729;52.090;13.162;2024-01-15T04:03:51;15.85;;;7.38;;
49834;SDS011;35729;52.090;13.162;2024-01-15T04:06:22;13.43;;;6.53;;
49834;SDS011;35729;52.090;13.162;2024-01-15T04:08:50;11.15;;;6.88;;
49834;SDS011;35729;52.090;13.162;2024-01-15T04:11:19;12.25;;;6.57;;
49834;SDS011;35729;52.090;13.162;2024-01-15T04:13:47;14.00;;;6.88;;
49834;SDS011;35729;52.090;13.162;2024-01-15T04:16:16;13.93;;;7.50;;
49834;SDS011;35729;52.090;13.162;2024-01-15T04:18:45;12.60;;;6.55;;
49834;SDS011;35729;52.090;13.162;2024-01-15T04:21:13;11.20;;;6.10;;
49834;SDS011;35729;52.090;13.162;2024-01-15T04:23:44;10.75;;;6.30;;
49834;SDS011;35729;52.090;13.162;2024-01-15T04:26:13;12.60;;;6.45;;
49834;SDS011;35729;52.090;13.162;2024-01-15T04:28:41;12.82;;;6.47;;
49834;SDS011;35729;52.090;13.162;2024-01-15T04:31:09;15.05;;;6.45;;
49834;SDS011;35729;52.090;13.162;2024-01-15T04:33:47;8.70;;;5.82;;
49834;SDS011;35729;52.090;13.162;2024-01-15T04:36:16;13.40;;;6.05;;
49834;SDS011;35729;52.090;13.162;2024-01-15T04:38:47;10.77;;;5.65;;
49834;SDS011;35729;52.090;13.162;2024-01-15T04:41:15;14.45;;;5.78;;
49834;SDS011;35729;52.090;13.162;2024-01-15T04:43:44;10.13;;;5.65;;
49834;SDS011;35729;52.090;13.162;2024-01-15T04:46:12;11.00;;;5.32;;
49834;SDS011;35729;52.090;13.162;2024-01-15T04:48:41;10.90;;;5.22;;
49834;SDS011;35729;52.090;13.162;2024-01-15T04:51:09;11.55;;;5.70;;
49834;SDS011;35729;52.090;13.162;2024-01-15T04:53:38;10.43;;;5.15;;
49834;SDS011;35729;52.090;13.162;2024-01-15T04:56:09;11.02;;;5.63;;
49834;SDS011;35729;52.090;13.162;2024-01-15T04:58:37;12.07;;;5.50;;
49834;SDS011;35729;52.090;13.162;2024-01-15T05:01:05;11.95;;;5.07;;
49834;SDS011;35729;52.090;13.162;2024-01-15T05:03:36;9.68;;;4.10;;
49834;SDS011;35729;52.090;13.162;2024-01-15T05:06:04;11.35;;;4.88;;
49834;SDS011;35729;52.090;13.162;2024-01-15T05:08:33;9.65;;;5.47;;
49834;SDS011;35729;52.090;13.162;2024-01-15T05:11:02;13.30;;;5.60;;
49834;SDS011;35729;52.090;13.162;2024-01-15T05:13:33;9.38;;;5.82;;
49834;SDS011;35729;52.090;13.162;2024-01-15T05:16:01;11.45;;;5.18;;
49834;SDS011;35729;52.090;13.162;2024-01-15T05:18:30;12.30;;;5.60;;
49834;SDS011;35729;52.090;13.162;2024-01-15T05:21:05;8.90;;;4.97;;
49834;SDS011;35729;52.090;13.162;2024-01-15T05:23:40;12.38;;;4.97;;
49834;SDS011;35729;52.090;13.162;2024-01-15T05:26:09;11.23;;;4.57;;
49834;SDS011;35729;52.090;13.162;2024-01-15T05:28:40;7.63;;;4.07;;
49834;SDS011;35729;52.090;13.162;2024-01-15T05:31:08;9.32;;;4.30;;
49834;SDS011;35729;52.090;13.162;2024-01-15T05:33:37;9.60;;;4.20;;
49834;SDS011;35729;52.090;13.162;2024-01-15T05:36:06;8.52;;;3.95;;
49834;SDS011;35729;52.090;13.162;2024-01-15T05:38:34;6.95;;;3.17;;
49834;SDS011;35729;52.090;13.162;2024-01-15T05:41:03;11.40;;;3.70;;
49834;SDS011;35729;52.090;13.162;2024-01-15T05:43:32;10.93;;;3.83;;
49834;SDS011;35729;52.090;13.162;2024-01-15T05:46:03;8.75;;;3.60;;
49834;SDS011;35729;52.090;13.162;2024-01-15T05:48:32;14.43;;;3.40;;
49834;SDS011;35729;52.090;13.162;2024-01-15T05:51:01;10.55;;;3.60;;
49834;SDS011;35729;52.090;13.162;2024-01-15T05:53:30;10.32;;;3.65;;
49834;SDS011;35729;52.090;13.162;2024-01-15T05:55:58;13.65;;;5.75;;
49834;SDS011;35729;52.090;13.162;2024-01-15T05:58:26;14.10;;;7.18;;
49834;SDS011;35729;52.090;13.162;2024-01-15T06:00:55;15.80;;;8.45;;
49834;SDS011;35729;52.090;13.162;2024-01-15T06:03:26;12.52;;;7.75;;
49834;SDS011;35729;52.090;13.162;2024-01-15T06:05:55;15.25;;;9.18;;
49834;SDS011;35729;52.090;13.162;2024-01-15T06:08:23;17.15;;;8.93;;
49834;SDS011;35729;52.090;13.162;2024-01-15T06:10:52;17.23;;;10.20;;
49834;SDS011;35729;52.090;13.162;2024-01-15T06:13:21;14.98;;;9.48;;
49834;SDS011;35729;52.090;13.162;2024-01-15T06:15:49;18.85;;;10.10;;
49834;SDS011;35729;52.090;13.162;2024-01-15T06:18:18;21.95;;;9.35;;
49834;SDS011;35729;52.090;13.162;2024-01-15T06:20:49;18.73;;;9.27;;
49834;SDS011;35729;52.090;13.162;2024-01-15T06:23:17;17.17;;;9.48;;
49834;SDS011;35729;52.090;13.162;2024-01-15T06:25:46;16.13;;;8.95;;
49834;SDS011;35729;52.090;13.162;2024-01-15T06:28:14;14.52;;;9.07;;
49834;SDS011;35729;52.090;13.162;2024-01-15T06:30:42;14.65;;;8.95;;
49834;SDS011;35729;52.090;13.162;2024-01-15T06:33:11;15.30;;;8.80;;
49834;SDS011;35729;52.090;13.162;2024-01-15T06:35:39;18.23;;;8.70;;
49834;SDS011;35729;52.090;13.162;2024-01-15T06:38:10;14.45;;;7.82;;
49834;SDS011;35729;52.090;13.162;2024-01-15T06:40:39;12.40;;;6.95;;
49834;SDS011;35729;52.090;13.162;2024-01-15T06:43:10;15.00;;;6.95;;
49834;SDS011;35729;52.090;13.162;2024-01-15T06:45:39;17.17;;;6.40;;
49834;SDS011;35729;52.090;13.162;2024-01-15T06:48:07;14.13;;;6.72;;
49834;SDS011;35729;52.090;13.162;2024-01-15T06:50:37;15.35;;;6.40;;
49834;SDS011;35729;52.090;13.162;2024-01-15T06:53:06;15.50;;;6.03;;
49834;SDS011;35729;52.090;13.162;2024-01-15T06:55:37;10.07;;;5.28;;
49834;SDS011;35729;52.090;13.162;2024-01-15T06:58:06;12.95;;;5.47;;
49834;SDS011;35729;52.090;13.162;2024-01-15T07:00:34;8.73;;;4.53;;
49834;SDS011;35729;52.090;13.162;2024-01-15T07:03:03;13.10;;;4.13;;
49834;SDS011;35729;52.090;13.162;2024-01-15T07:05:32;12.10;;;3.75;;
49834;SDS011;35729;52.090;13.162;2024-01-15T07:08:02;10.20;;;3.60;;
49834;SDS011;35729;52.090;13.162;2024-01-15T07:10:31;8.70;;;3.25;;
49834;SDS011;35729;52.090;13.162;2024-01-15T07:13:02;9.43;;;3.35;;
49834;SDS011;35729;52.090;13.162;2024-01-15T07:15:31;12.05;;;3.72;;
49834;SDS011;35729;52.090;13.162;2024-01-15T07:17:59;13.23;;;3.17;;
49834;SDS011;35729;52.090;13.162;2024-01-15T07:20:28;12.27;;;3.58;;
49834;SDS011;35729;52.090;13.162;2024-01-15T07:22:56;12.50;;;3.70;;
49834;SDS011;35729;52.090;13.162;2024-01-15T07:25:24;9.88;;;3.30;;
49834;SDS011;35729;52.090;13.162;2024-01-15T07:27:53;12.23;;;4.07;;
49834;SDS011;35729;52.090;13.162;2024-01-15T07:30:24;10.18;;;3.83;;
49834;SDS011;35729;52.090;13.162;2024-01-15T07:32:53;8.70;;;3.58;;
49834;SDS011;35729;52.090;13.162;2024-01-15T07:35:21;9.40;;;3.67;;
49834;SDS011;35729;52.090;13.162;2024-01-15T07:37:50;11.70;;;4.00;;
49834;SDS011;35729;52.090;13.162;2024-01-15T07:40:18;7.35;;;3.30;;
49834;SDS011;35729;52.090;13.162;2024-01-15T07:42:46;13.13;;;3.55;;
49834;SDS011;35729;52.090;13.162;2024-01-15T07:45:15;15.90;;;5.00;;
49834;SDS011;35729;52.090;13.162;2024-01-15T07:47:46;14.20;;;4.15;;
49834;SDS011;35729;52.090;13.162;2024-01-15T07:50:14;10.30;;;3.75;;
49834;SDS011;35729;52.090;13.162;2024-01-15T07:52:43;7.22;;;3.55;;
49834;SDS011;35729;52.090;13.162;2024-01-15T07:55:11;14.43;;;3.97;;
49834;SDS011;35729;52.090;13.162;2024-01-15T07:57:40;10.55;;;3.42;;
49834;SDS011;35729;52.090;13.162;2024-01-15T08:00:08;10.00;;;3.88;;
49834;SDS011;35729;52.090;13.162;2024-01-15T08:02:37;6.85;;;2.85;;
49834;SDS011;35729;52.090;13.162;2024-01-15T08:05:09;11.70;;;3.40;;
49834;SDS011;35729;52.090;13.162;2024-01-15T08:07:37;13.93;;;3.22;;
49834;SDS011;35729;52.090;13.162;2024-01-15T08:10:06;7.22;;;2.80;;
49834;SDS011;35729;52.090;13.162;2024-01-15T08:12:34;8.40;;;3.03;;
49834;SDS011;35729;52.090;13.162;2024-01-15T08:15:03;6.28;;;3.13;;
49834;SDS011;35729;52.090;13.162;2024-01-15T08:17:33;8.85;;;3.08;;
49834;SDS011;35729;52.090;13.162;2024-01-15T08:20:01;6.50;;;3.15;;
49834;SDS011;35729;52.090;13.162;2024-01-15T08:22:33;5.93;;;2.97;;
49834;SDS011;35729;52.090;13.162;2024-01-15T08:25:02;7.13;;;2.90;;
49834;SDS011;35729;52.090;13.162;2024-01-15T08:27:30;10.98;;;3.80;;
49834;SDS011;35729;52.090;13.162;2024-01-15T08:30:06;15.23;;;3.80;;
49834;SDS011;35729;52.090;13.162;2024-01-15T08:32:36;14.98;;;3.70;;
49834;SDS011;35729;52.090;13.162;2024-01-15T08:35:07;12.07;;;3.65;;
49834;SDS011;35729;52.090;13.162;2024-01-15T08:37:38;11.80;;;3.83;;
49834;SDS011;35729;52.090;13.162;2024-01-15T08:40:29;7.45;;;3.38;;
49834;SDS011;35729;52.090;13.162;2024-01-15T08:42:57;9.77;;;3.88;;
49834;SDS011;35729;52.090;13.162;2024-01-15T08:45:27;11.05;;;3.35;;
49834;SDS011;35729;52.090;13.162;2024-01-15T08:47:55;12.57;;;4.05;;
49834;SDS011;35729;52.090;13.162;2024-01-15T08:50:24;11.98;;;4.75;;
49834;SDS011;35729;52.090;13.162;2024-01-15T08:52:55;6.40;;;4.00;;
49834;SDS011;35729;52.090;13.162;2024-01-15T08:55:23;7.22;;;3.70;;
49834;SDS011;35729;52.090;13.162;2024-01-15T08:57:52;13.05;;;3.85;;
49834;SDS011;35729;52.090;13.162;2024-01-15T09:00:20;6.13;;;3.28;;
49834;SDS011;35729;52.090;13.162;2024-01-15T09:02:49;9.90;;;3.58;;
49834;SDS011;35729;52.090;13.162;2024-01-15T09:05:17;8.93;;;3.60;;
49834;SDS011;35729;52.090;13.162;2024-01-15T09:07:45;7.40;;;3.42;;
49834;SDS011;35729;52.090;13.162;2024-01-15T09:10:19;7.90;;;3.05;;
49834;SDS011;35729;52.090;13.162;2024-01-15T09:12:47;9.15;;;3.42;;
49834;SDS011;35729;52.090;13.162;2024-01-15T09:15:16;10.13;;;3.30;;
49834;SDS011;35729;52.090;13.162;2024-01-15T09:17:45;10.15;;;4.00;;
49834;SDS011;35729;52.090;13.162;2024-01-15T09:20:14;8.15;;;3.97;;
49834;SDS011;35729;52.090;13.162;2024-01-15T09:22:43;10.20;;;3.28;;
49834;SDS011;35729;52.090;13.162;2024-01-15T09:25:12;11.75;;;4.47;;
49834;SDS011;35729;52.090;13.162;2024-01-15T09:27:43;9.07;;;3.85;;
49834;SDS011;35729;52.090;13.162;2024-01-15T09:30:12;5.07;;;2.83;;
49834;SDS011;35729;52.090;13.162;2024-01-15T09:32:40;6.25;;;3.65;;
49834;SDS011;35729;52.090;13.162;2024-01-15T09:35:09;5.47;;;2.88;;
49834;SDS011;35729;52.090;13.162;2024-01-15T09:37:38;7.60;;;3.13;;
49834;SDS011;35729;52.090;13.162;2024-01-15T09:40:08;9.65;;;3.13;;
49834;SDS011;35729;52.090;13.162;2024-01-15T09:42:44;7.70;;;4.00;;
49834;SDS011;35729;52.090;13.162;2024-01-15T09:45:13;12.25;;;4.30;;
49834;SDS011;35729;52.090;13.162;2024-01-15T09:47:42;11.57;;;3.97;;
49834;SDS011;35729;52.090;13.162;2024-01-15T09:50:11;9.18;;;3.50;;
49834;SDS011;35729;52.090;13.162;2024-01-15T09:52:40;8.70;;;3.97;;
49834;SDS011;35729;52.090;13.162;2024-01-15T09:55:10;10.40;;;3.65;;
49834;SDS011;35729;52.090;13.162;2024-01-15T09:57:39;6.13;;;3.13;;
49834;SDS011;35729;52.090;13.162;2024-01-15T10:00:10;7.47;;;3.33;;
49834;SDS011;35729;52.090;13.162;2024-01-15T10:02:39;9.25;;;3.30;;
49834;SDS011;35729;52.090;13.162;2024-01-15T10:05:08;6.63;;;2.95;;
49834;SDS011;35729;52.090;13.162;2024-01-15T10:07:37;6.35;;;3.33;;
49834;SDS011;35729;52.090;13.162;2024-01-15T10:10:06;11.65;;;4.22;;
49834;SDS011;35729;52.090;13.162;2024-01-15T10:12:35;7.20;;;3.20;;
49834;SDS011;35729;52.090;13.162;2024-01-15T10:15:05;8.50;;;2.92;;
49834;SDS011;35729;52.090;13.162;2024-01-15T10:17:36;6.38;;;3.03;;
49834;SDS011;35729;52.090;13.162;2024-01-15T10:20:07;6.38;;;2.95;;
49834;SDS011;35729;52.090;13.162;2024-01-15T10:22:39;8.15;;;3.30;;
49834;SDS011;35729;52.090;13.162;2024-01-15T10:25:12;7.30;;;2.78;;
49834;SDS011;35729;52.090;13.162;2024-01-15T10:27:41;8.95;;;3.47;;
49834;SDS011;35729;52.090;13.162;2024-01-15T10:30:10;9.52;;;2.72;;
49834;SDS011;35729;52.090;13.162;2024-01-15T10:32:42;6.03;;;2.70;;
49834;SDS011;35729;52.090;13.162;2024-01-15T10:35:26;8.48;;;3.63;;
49834;SDS011;35729;52.090;13.162;2024-01-15T10:37:56;7.57;;;2.83;;
49834;SDS011;35729;52.090;13.162;2024-01-15T10:40:24;6.53;;;3.08;;
49834;SDS011;35729;52.090;13.162;2024-01-15T10:42:53;4.18;;;2.63;;
49834;SDS011;35729;52.090;13.162;2024-01-15T10:45:21;6.82;;;3.00;;
49834;SDS011;35729;52.090;13.162;2024-01-15T10:47:53;8.18;;;2.80;;
49834;SDS011;35729;52.090;13.162;2024-01-15T10:50:23;7.13;;;2.73;;
49834;SDS011;35729;52.090;13.162;2024-01-15T10:52:52;8.05;;;3.25;;
49834;SDS011;35729;52.090;13.162;2024-01-15T10:55:21;8.75;;;3.15;;
49834;SDS011;35729;52.090;13.162;2024-01-15T10:57:51;7.60;;;2.63;;
49834;SDS011;35729;52.090;13.162;2024-01-15T11:00:21;7.57;;;2.58;;
49834;SDS011;35729;52.090;13.162;2024-01-15T11:02:53;5.90;;;2.72;;
49834;SDS011;35729;52.090;13.162;2024-01-15T11:05:22;8.63;;;4.22;;
49834;SDS011;35729;52.090;13.162;2024-01-15T11:07:54;11.68;;;2.80;;
49834;SDS011;35729;52.090;13.162;2024-01-15T11:10:37;6.38;;;2.90;;
49834;SDS011;35729;52.090;13.162;2024-01-15T11:13:07;7.38;;;3.05;;
49834;SDS011;35729;52.090;13.162;2024-01-15T11:18:29;6.40;;;3.60;;
49834;SDS011;35729;52.090;13.162;2024-01-15T11:23:58;5.72;;;3.17;;
49834;SDS011;35729;52.090;13.162;2024-01-15T11:26:27;8.02;;;3.00;;
49834;SDS011;35729;52.090;13.162;2024-01-15T11:29:01;4.03;;;3.10;;
49834;SDS011;35729;52.090;13.162;2024-01-15T11:37:27;6.32;;;3.97;;
49834;SDS011;35729;52.090;13.162;2024-01-15T11:40:00;7.05;;;3.00;;
49834;SDS011;35729;52.090;13.162;2024-01-15T11:42:36;5.85;;;3.90;;
49834;SDS011;35729;52.090;13.162;2024-01-15T11:45:04;5.22;;;3.22;;
49834;SDS011;35729;52.090;13.162;2024-01-15T11:50:37;8.27;;;5.65;;
49834;SDS011;35729;52.090;13.162;2024-01-15T11:53:11;10.32;;;5.50;;
49834;SDS011;35729;52.090;13.162;2024-01-15T11:55:45;9.23;;;6.07;;
49834;SDS011;35729;52.090;13.162;2024-01-15T11:58:14;7.45;;;4.65;;
49834;SDS011;35729;52.090;13.162;2024-01-15T12:00:43;6.60;;;4.32;;
49834;SDS011;35729;52.090;13.162;2024-01-15T12:03:12;7.85;;;4.60;;
49834;SDS011;35729;52.090;13.162;2024-01-15T12:05:44;7.75;;;4.63;;
49834;SDS011;35729;52.090;13.162;2024-01-15T12:08:13;10.20;;;5.97;;
49834;SDS011;35729;52.090;13.162;2024-01-15T12:10:41;8.07;;;4.50;;
49834;SDS011;35729;52.090;13.162;2024-01-15T12:13:10;7.80;;;4.65;;
49834;SDS011;35729;52.090;13.162;2024-01-15T12:15:40;6.47;;;4.50;;
49834;SDS011;35729;52.090;13.162;2024-01-15T12:18:11;7.70;;;4.50;;
49834;SDS011;35729;52.090;13.162;2024-01-15T12:20:40;7.13;;;4.57;;
49834;SDS011;35729;52.090;13.162;2024-01-15T12:23:14;8.55;;;4.57;;
49834;SDS011;35729;52.090;13.162;2024-01-15T12:25:42;5.90;;;3.85;;
49834;SDS011;35729;52.090;13.162;2024-01-15T12:28:12;6.40;;;4.38;;
49834;SDS011;35729;52.090;13.162;2024-01-15T12:30:40;6.00;;;4.05;;
49834;SDS011;35729;52.090;13.162;2024-01-15T12:33:09;6.82;;;4.40;;
49834;SDS011;35729;52.090;13.162;2024-01-15T12:35:47;6.03;;;4.68;;
49834;SDS011;35729;52.090;13.162;2024-01-15T12:38:18;7.07;;;4.18;;
49834;SDS011;35729;52.090;13.162;2024-01-15T12:40:46;8.18;;;5.78;;
49834;SDS011;35729;52.090;13.162;2024-01-15T12:43:16;15.55;;;7.32;;
49834;SDS011;35729;52.090;13.162;2024-01-15T12:45:45;10.82;;;6.72;;
49834;SDS011;35729;52.090;13.162;2024-01-15T12:48:14;11.15;;;6.35;;
49834;SDS011;35729;52.090;13.162;2024-01-15T12:50:43;14.25;;;7.60;;
49834;SDS011;35729;52.090;13.162;2024-01-15T12:53:15;9.02;;;6.55;;
49834;SDS011;35729;52.090;13.162;2024-01-15T12:55:43;9.57;;;6.40;;
49834;SDS011;35729;52.090;13.162;2024-01-15T12:58:12;9.48;;;6.13;;
49834;SDS011;35729;52.090;13.162;2024-01-15T13:00:40;10.27;;;6.18;;
49834;SDS011;35729;52.090;13.162;2024-01-15T13:03:09;9.52;;;6.53;;
49834;SDS011;35729;52.090;13.162;2024-01-15T13:05:38;10.60;;;7.47;;
49834;SDS011;35729;52.090;13.162;2024-01-15T13:08:10;14.20;;;6.68;;
49834;SDS011;35729;52.090;13.162;2024-01-15T13:10:41;14.50;;;7.07;;
49834;SDS011;35729;52.090;13.162;2024-01-15T13:13:10;13.60;;;7.07;;
49834;SDS011;35729;52.090;13.162;2024-01-15T13:15:38;13.10;;;7.50;;
49834;SDS011;35729;52.090;13.162;2024-01-15T13:18:06;11.00;;;7.13;;
49834;SDS011;35729;52.090;13.162;2024-01-15T13:20:35;12.07;;;7.93;;
49834;SDS011;35729;52.090;13.162;2024-01-15T13:23:04;15.10;;;7.75;;
49834;SDS011;35729;52.090;13.162;2024-01-15T13:25:32;14.80;;;7.75;;
49834;SDS011;35729;52.090;13.162;2024-01-15T13:28:06;13.40;;;8.00;;
49834;SDS011;35729;52.090;13.162;2024-01-15T13:30:34;14.85;;;7.63;;
49834;SDS011;35729;52.090;13.162;2024-01-15T13:33:03;17.10;;;8.07;;
49834;SDS011;35729;52.090;13.162;2024-01-15T13:35:33;17.63;;;8.30;;
49834;SDS011;35729;52.090;13.162;2024-01-15T13:38:02;14.82;;;6.93;;
49834;SDS011;35729;52.090;13.162;2024-01-15T13:40:30;12.48;;;7.40;;
49834;SDS011;35729;52.090;13.162;2024-01-15T13:42:59;12.90;;;7.53;;
49834;SDS011;35729;52.090;13.162;2024-01-15T13:45:34;15.05;;;6.30;;
49834;SDS011;35729;52.090;13.162;2024-01-15T13:48:03;10.93;;;6.80;;
49834;SDS011;35729;52.090;13.162;2024-01-15T13:50:33;11.93;;;6.78;;
49834;SDS011;35729;52.090;13.162;2024-01-15T13:53:02;15.63;;;6.78;;
49834;SDS011;35729;52.090;13.162;2024-01-15T13:55:31;13.00;;;6.47;;
49834;SDS011;35729;52.090;13.162;2024-01-15T13:58:00;11.23;;;6.00;;
49834;SDS011;35729;52.090;13.162;2024-01-15T14:00:30;17.15;;;6.80;;
49834;SDS011;35729;52.090;13.162;2024-01-15T14:03:02;13.85;;;6.22;;
49834;SDS011;35729;52.090;13.162;2024-01-15T14:05:31;11.52;;;7.05;;
49834;SDS011;35729;52.090;13.162;2024-01-15T14:07:59;12.73;;;6.40;;
49834;SDS011;35729;52.090;13.162;2024-01-15T14:10:28;11.63;;;6.65;;
49834;SDS011;35729;52.090;13.162;2024-01-15T14:12:57;14.38;;;5.93;;
49834;SDS011;35729;52.090;13.162;2024-01-15T14:15:26;15.13;;;6.35;;
49834;SDS011;35729;52.090;13.162;2024-01-15T14:17:55;20.20;;;7.65;;
49834;SDS011;35729;52.090;13.162;2024-01-15T14:20:26;17.55;;;7.38;;
49834;SDS011;35729;52.090;13.162;2024-01-15T14:22:55;18.13;;;6.85;;
49834;SDS011;35729;52.090;13.162;2024-01-15T14:25:23;13.70;;;6.07;;
49834;SDS011;35729;52.090;13.162;2024-01-15T14:27:52;12.38;;;5.90;;
49834;SDS011;35729;52.090;13.162;2024-01-15T14:30:20;13.27;;;5.45;;
49834;SDS011;35729;52.090;13.162;2024-01-15T14:32:49;14.18;;;5.55;;
49834;SDS011;35729;52.090;13.162;2024-01-15T14:35:17;10.18;;;5.90;;
49834;SDS011;35729;52.090;13.162;2024-01-15T14:37:48;10.40;;;4.57;;
49834;SDS011;35729;52.090;13.162;2024-01-15T14:40:16;9.25;;;4.38;;
49834;SDS011;35729;52.090;13.162;2024-01-15T14:42:45;6.07;;;3.85;;
49834;SDS011;35729;52.090;13.162;2024-01-15T14:45:13;9.15;;;3.85;;
49834;SDS011;35729;52.090;13.162;2024-01-15T14:47:42;10.85;;;3.38;;
49834;SDS011;35729;52.090;13.162;2024-01-15T14:50:10;12.10;;;4.03;;